Terminal Aerodrome Forecast
Issued by NWS

Home | Current Version | Previous Version | Text Only | Print | Product List | Glossary On
Versions: 1 2 3 4 5 6 7 8 9 10 11 12 13 14 15 16 17 18 19 20 21 22 23 24 25 26 27
000
FTUS41 KBUF 202330 CCA
TAFJHW
TAF COR
KJHW 202330Z 2100/2124 21010KT P6SM SCT040 SCT100 BKN250
      WS020/22040KT
     FM210300 19012KT P6SM SCT100 BKN250 WS015/22045KT
     FM210900 20012KT P6SM SCT035 BKN050 WS015/22045KT
     FM211200 20012G18KT P6SM VCSH BKN045 WS015/22045KT
     FM211400 25013G20KT 5SM -RA BR BKN007
     FM212000 31010KT P6SM SCT007 BKN015
     FM212300 33008KT P6SM BKN060
      AMD NOT SKED=

USA.gov is the U.S. government's official web portal to all federal, state and local government web resources and services.